NCR8899 KPAE-KDFW
Flight info
| Callsign | NCR8899 |
|---|---|
| Flight time | N/A |
| Altitude | 35000 |
| Route | NORMY MODDA STEVS FINUT OFINO DLN BOY LEWOY GLD DDC IRW IBAKE VKTRY2 |
| Aircraft | B77L/H-SDE1E2E3FGHIJ2J3J4J5M1RWXY/LB1D1 |
Departure
| Time | 2026-04-24 15:00 |
|---|---|
| Airport | Seattle Paine Field International Airport (KPAE) |
Arrival
| Time | N/A |
|---|---|
| Airport | Dallas Fort Worth International Airport (KDFW) |
| Time | Latitude | Longitude | Altitude | Speed | Heading |
|---|---|---|---|---|---|
| 2026-04-24 14:54 | 47.91750 | -122.28039 | 588 ft | 0 kts | 90° |
| 2026-04-24 14:55 | 47.91762 | -122.28019 | 590 ft | 8 kts | 35° |
| 2026-04-24 14:55 | 47.91809 | -122.28033 | 591 ft | 6 kts | 342° |
| 2026-04-24 14:56 | 47.91859 | -122.28045 | 591 ft | 10 kts | 359° |
| 2026-04-24 14:56 | 47.91962 | -122.28048 | 589 ft | 16 kts | 6° |
| 2026-04-24 14:56 | 47.92067 | -122.28043 | 585 ft | 15 kts | 358° |
| 2026-04-24 14:56 | 47.92169 | -122.28103 | 574 ft | 17 kts | 303° |
| 2026-04-24 14:57 | 47.92171 | -122.28205 | 561 ft | 11 kts | 264° |
| 2026-04-24 14:57 | 47.92162 | -122.28337 | 559 ft | 11 kts | 264° |
| 2026-04-24 14:57 | 47.92155 | -122.28428 | 563 ft | 5 kts | 264° |
| 2026-04-24 14:57 | 47.92153 | -122.28456 | 564 ft | 0 kts | 264° |
| 2026-04-24 14:58 | 47.92152 | -122.28468 | 565 ft | 3 kts | 264° |
| 2026-04-24 14:58 | 47.92141 | -122.28555 | 572 ft | 11 kts | 234° |
| 2026-04-24 14:58 | 47.92050 | -122.28578 | 576 ft | 12 kts | 177° |
| 2026-04-24 14:58 | 47.91981 | -122.28573 | 580 ft | 7 kts | 177° |
| 2026-04-24 14:59 | 47.91940 | -122.28571 | 581 ft | 4 kts | 177° |
| 2026-04-24 14:59 | 47.91916 | -122.28568 | 582 ft | 2 kts | 177° |
| 2026-04-24 14:59 | 47.91885 | -122.28569 | 582 ft | 15 kts | 181° |
| 2026-04-24 14:59 | 47.91459 | -122.28565 | 587 ft | 108 kts | 180° |
| 2026-04-24 15:00 | 47.90422 | -122.28544 | 737 ft | 178 kts | 180° |
| 2026-04-24 15:00 | 47.89077 | -122.28580 | 1513 ft | 205 kts | 183° |
| 2026-04-24 15:00 | 47.87811 | -122.28805 | 3207 ft | 184 kts | 193° |
| 2026-04-24 15:00 | 47.86674 | -122.29565 | 4318 ft | 190 kts | 221° |
| 2026-04-24 15:01 | 47.85812 | -122.31164 | 5074 ft | 212 kts | 232° |
| 2026-04-24 15:01 | 47.84627 | -122.32463 | 6011 ft | 227 kts | 197° |
| 2026-04-24 15:01 | 47.83038 | -122.32532 | 6866 ft | 242 kts | 156° |
| 2026-04-24 15:01 | 47.81628 | -122.31150 | 7780 ft | 256 kts | 132° |
| 2026-04-24 15:02 | 47.80343 | -122.29210 | 8770 ft | 276 kts | 130° |
| 2026-04-24 15:02 | 47.78970 | -122.27084 | 9799 ft | 295 kts | 129° |
| 2026-04-24 15:02 | 47.77527 | -122.24850 | 10858 ft | 312 kts | 129° |
| 2026-04-24 15:02 | 47.75997 | -122.22482 | 11807 ft | 331 kts | 128° |
| 2026-04-24 15:03 | 47.74929 | -122.20830 | 12455 ft | 343 kts | 128° |
| 2026-04-24 15:03 | 47.72651 | -122.17313 | 13699 ft | 368 kts | 128° |
| 2026-04-24 15:03 | 47.70845 | -122.14527 | 14616 ft | 387 kts | 128° |
| 2026-04-24 15:03 | 47.68957 | -122.11623 | 15511 ft | 405 kts | 128° |
| 2026-04-24 15:04 | 47.66954 | -122.08547 | 16400 ft | 422 kts | 128° |
| 2026-04-24 15:04 | 47.64873 | -122.05357 | 17217 ft | 441 kts | 129° |
| 2026-04-24 15:04 | 47.62738 | -122.02093 | 18209 ft | 452 kts | 129° |
| 2026-04-24 15:04 | 47.60532 | -121.98727 | 19243 ft | 462 kts | 129° |
| 2026-04-24 15:05 | 47.58283 | -121.95304 | 20322 ft | 470 kts | 129° |
| 2026-04-24 15:05 | 47.56004 | -121.91838 | 21272 ft | 479 kts | 129° |
| 2026-04-24 15:05 | 47.53655 | -121.88274 | 22370 ft | 485 kts | 129° |
| 2026-04-24 15:05 | 47.51307 | -121.84718 | 23336 ft | 492 kts | 129° |
| 2026-04-24 15:06 | 47.48904 | -121.81063 | 24116 ft | 501 kts | 127° |
| 2026-04-24 15:06 | 47.46753 | -121.77079 | 25019 ft | 500 kts | 118° |
| 2026-04-24 15:06 | 47.45018 | -121.72654 | 25855 ft | 498 kts | 108° |
| 2026-04-24 15:06 | 47.43757 | -121.67932 | 26647 ft | 496 kts | 99° |
| 2026-04-24 15:07 | 47.42984 | -121.62972 | 27433 ft | 492 kts | 90° |
| 2026-04-24 15:07 | 47.42703 | -121.58030 | 28152 ft | 491 kts | 83° |
| 2026-04-24 15:07 | 47.42509 | -121.52921 | 28971 ft | 501 kts | 89° |
| 2026-04-24 15:07 | 47.41854 | -121.47850 | 29955 ft | 508 kts | 95° |
| 2026-04-24 15:08 | 47.41011 | -121.42848 | 30869 ft | 508 kts | 96° |
| 2026-04-24 15:08 | 47.40130 | -121.37791 | 31768 ft | 506 kts | 96° |
| 2026-04-24 15:08 | 47.39256 | -121.32822 | 32639 ft | 503 kts | 96° |
| 2026-04-24 15:08 | 47.38376 | -121.27841 | 33254 ft | 504 kts | 97° |
| 2026-04-24 15:09 | 47.37487 | -121.22838 | 33839 ft | 505 kts | 97° |
| 2026-04-24 15:09 | 47.36592 | -121.17832 | 34576 ft | 502 kts | 97° |
| 2026-04-24 15:09 | 47.35692 | -121.12810 | 35012 ft | 504 kts | 97° |
| 2026-04-24 15:10 | 47.33872 | -121.02681 | 35119 ft | 525 kts | 97° |
| 2026-04-24 15:10 | 47.31959 | -120.92140 | 35082 ft | 539 kts | 98° |
| 2026-04-24 15:11 | 47.30003 | -120.81458 | 35090 ft | 542 kts | 98° |
| 2026-04-24 15:11 | 47.28023 | -120.70713 | 35080 ft | 544 kts | 98° |
| 2026-04-24 15:12 | 47.26044 | -120.60032 | 35089 ft | 544 kts | 98° |
| 2026-04-24 15:12 | 47.23441 | -120.43887 | 35077 ft | 538 kts | 92° |
| 2026-04-24 15:13 | 47.22107 | -120.33133 | 35074 ft | 539 kts | 94° |
| 2026-04-24 15:13 | 47.20725 | -120.22295 | 35090 ft | 540 kts | 94° |
| 2026-04-24 15:14 | 47.19319 | -120.11488 | 35117 ft | 539 kts | 94° |
| 2026-04-24 15:14 | 47.17899 | -120.00725 | 35122 ft | 539 kts | 95° |
| 2026-04-24 15:15 | 47.16463 | -119.89964 | 35133 ft | 540 kts | 95° |
| 2026-04-24 15:15 | 47.15008 | -119.79166 | 35310 ft | 540 kts | 95° |
| 2026-04-24 15:16 | 47.14276 | -119.73767 | 35165 ft | 541 kts | 95° |
| 2026-04-24 15:16 | 47.13538 | -119.68348 | 35125 ft | 538 kts | 95° |
| 2026-04-24 15:16 | 47.12075 | -119.57677 | 35145 ft | 537 kts | 95° |
| 2026-04-24 15:17 | 47.10600 | -119.46987 | 35136 ft | 536 kts | 96° |
| 2026-04-24 15:17 | 47.09114 | -119.36302 | 35149 ft | 537 kts | 95° |
| 2026-04-24 15:18 | 47.07616 | -119.25610 | 35147 ft | 536 kts | 96° |
| 2026-04-24 15:18 | 47.06113 | -119.14962 | 35136 ft | 535 kts | 97° |
| 2026-04-24 15:19 | 47.04593 | -119.04266 | 35139 ft | 535 kts | 97° |
| 2026-04-24 15:19 | 47.03081 | -118.93706 | 35138 ft | 534 kts | 97° |
| 2026-04-24 15:20 | 47.01541 | -118.83019 | 35137 ft | 534 kts | 97° |
| 2026-04-24 15:20 | 47.00015 | -118.72531 | 35138 ft | 514 kts | 97° |
| 2026-04-24 15:21 | 46.99272 | -118.67461 | 35121 ft | 499 kts | 97° |
| 2026-04-24 15:21 | 46.98559 | -118.62604 | 35130 ft | 486 kts | 97° |
| 2026-04-24 15:21 | 46.97142 | -118.52940 | 35121 ft | 490 kts | 97° |
| 2026-04-24 15:22 | 46.95703 | -118.43205 | 35131 ft | 487 kts | 97° |
| 2026-04-24 15:23 | 46.93549 | -118.28745 | 35127 ft | 489 kts | 97° |
| 2026-04-24 15:23 | 46.91358 | -118.14182 | 35134 ft | 489 kts | 98° |
| 2026-04-24 15:25 | 46.87909 | -117.91536 | 35120 ft | 489 kts | 97° |
| 2026-04-24 15:26 | 46.83920 | -117.65740 | 35117 ft | 490 kts | 98° |
| 2026-04-24 15:27 | 46.79365 | -117.36772 | 35114 ft | 491 kts | 98° |
| 2026-04-24 15:29 | 46.74596 | -117.07809 | 35094 ft | 495 kts | 104° |
| 2026-04-24 15:31 | 46.66988 | -116.76254 | 35100 ft | 499 kts | 105° |
| 2026-04-24 15:33 | 46.57293 | -116.36906 | 35124 ft | 499 kts | 106° |
| 2026-04-24 15:34 | 46.51170 | -116.13362 | 35119 ft | 503 kts | 112° |
| 2026-04-24 15:35 | 46.43632 | -115.90543 | 35100 ft | 505 kts | 113° |
| 2026-04-24 15:36 | 46.40591 | -115.81397 | 35081 ft | 504 kts | 112° |
| 2026-04-24 15:36 | 46.36030 | -115.67735 | 35063 ft | 506 kts | 113° |
| 2026-04-24 15:37 | 46.32968 | -115.58604 | 35070 ft | 505 kts | 113° |
| 2026-04-24 15:37 | 46.29911 | -115.49513 | 35080 ft | 506 kts | 113° |
| 2026-04-24 15:38 | 46.26835 | -115.40403 | 35064 ft | 506 kts | 113° |
| 2026-04-24 15:38 | 46.23748 | -115.31290 | 35020 ft | 507 kts | 114° |
| 2026-04-24 15:39 | 46.20650 | -115.22176 | 34962 ft | 505 kts | 114° |
| 2026-04-24 15:39 | 46.17546 | -115.13077 | 34976 ft | 507 kts | 114° |
| 2026-04-24 15:40 | 46.14431 | -115.03976 | 34997 ft | 506 kts | 114° |
| 2026-04-24 15:40 | 46.11321 | -114.94920 | 34993 ft | 508 kts | 114° |
| 2026-04-24 15:41 | 46.08173 | -114.85789 | 34980 ft | 507 kts | 115° |
| 2026-04-24 15:41 | 46.05043 | -114.76736 | 34974 ft | 507 kts | 115° |
| 2026-04-24 15:42 | 46.01889 | -114.67646 | 34974 ft | 507 kts | 115° |
| 2026-04-24 15:42 | 45.98727 | -114.58567 | 34943 ft | 508 kts | 115° |
| 2026-04-24 15:43 | 45.95574 | -114.49541 | 34927 ft | 509 kts | 115° |
| 2026-04-24 15:43 | 45.92403 | -114.40498 | 34932 ft | 509 kts | 115° |
| 2026-04-24 15:44 | 45.89213 | -114.31428 | 34935 ft | 510 kts | 115° |
| 2026-04-24 15:44 | 45.85996 | -114.22315 | 34944 ft | 511 kts | 115° |
| 2026-04-24 15:45 | 45.82809 | -114.13316 | 34943 ft | 510 kts | 116° |
| 2026-04-24 15:45 | 45.79576 | -114.04218 | 34924 ft | 512 kts | 116° |
| 2026-04-24 15:46 | 45.76362 | -113.95206 | 34914 ft | 513 kts | 116° |
| 2026-04-24 15:46 | 45.73115 | -113.86130 | 34912 ft | 513 kts | 116° |
| 2026-04-24 15:47 | 45.69848 | -113.77027 | 34898 ft | 513 kts | 116° |
| 2026-04-24 15:47 | 45.66594 | -113.67993 | 34903 ft | 514 kts | 116° |
| 2026-04-24 15:48 | 45.63341 | -113.58992 | 34927 ft | 515 kts | 116° |
| 2026-04-24 15:48 | 45.60042 | -113.49895 | 34959 ft | 515 kts | 116° |
| 2026-04-24 15:49 | 45.56752 | -113.40853 | 34949 ft | 516 kts | 116° |
| 2026-04-24 15:49 | 45.53434 | -113.31763 | 34912 ft | 516 kts | 117° |
| 2026-04-24 15:50 | 45.50133 | -113.22752 | 34884 ft | 517 kts | 117° |
| 2026-04-24 15:50 | 45.46786 | -113.13644 | 34870 ft | 517 kts | 117° |
| 2026-04-24 15:51 | 45.43446 | -113.04586 | 34872 ft | 519 kts | 117° |
| 2026-04-24 15:51 | 45.40087 | -112.95506 | 34893 ft | 519 kts | 117° |
| 2026-04-24 15:52 | 45.36729 | -112.86457 | 34928 ft | 520 kts | 117° |
| 2026-04-24 15:52 | 45.33369 | -112.77434 | 34978 ft | 519 kts | 117° |
| 2026-04-24 15:53 | 45.29987 | -112.68384 | 35005 ft | 519 kts | 117° |
| 2026-04-24 15:53 | 45.26585 | -112.59309 | 34999 ft | 520 kts | 117° |
| 2026-04-24 15:54 | 45.23162 | -112.50299 | 35001 ft | 520 kts | 118° |
| 2026-04-24 15:54 | 45.19671 | -112.41390 | 34993 ft | 521 kts | 118° |
| 2026-04-24 15:55 | 45.16151 | -112.32426 | 34956 ft | 521 kts | 119° |
| 2026-04-24 15:55 | 45.12615 | -112.23447 | 34916 ft | 522 kts | 119° |
| 2026-04-24 15:56 | 45.09090 | -112.14519 | 34920 ft | 522 kts | 120° |
| 2026-04-24 15:56 | 45.05547 | -112.05569 | 34924 ft | 523 kts | 120° |
| 2026-04-24 15:57 | 45.02022 | -111.96694 | 34928 ft | 522 kts | 120° |
| 2026-04-24 15:57 | 44.98471 | -111.87781 | 34910 ft | 524 kts | 120° |
| 2026-04-24 15:58 | 44.94888 | -111.78816 | 34921 ft | 524 kts | 120° |
| 2026-04-24 15:58 | 44.91316 | -111.69907 | 34891 ft | 524 kts | 120° |
| 2026-04-24 15:59 | 44.87727 | -111.60982 | 34922 ft | 524 kts | 120° |
| 2026-04-24 15:59 | 44.84128 | -111.52063 | 34925 ft | 525 kts | 120° |
| 2026-04-24 16:00 | 44.80526 | -111.43163 | 34918 ft | 524 kts | 120° |
| 2026-04-24 16:00 | 44.76921 | -111.34286 | 34940 ft | 527 kts | 121° |
| 2026-04-24 16:01 | 44.73266 | -111.25312 | 34945 ft | 525 kts | 121° |
| 2026-04-24 16:01 | 44.69636 | -111.16429 | 34919 ft | 526 kts | 121° |
| 2026-04-24 16:02 | 44.65996 | -111.07549 | 34927 ft | 528 kts | 121° |
| 2026-04-24 16:02 | 44.62353 | -110.98691 | 34920 ft | 527 kts | 121° |
| 2026-04-24 16:03 | 44.58674 | -110.89771 | 34901 ft | 527 kts | 121° |
| 2026-04-24 16:03 | 44.55005 | -110.80904 | 34886 ft | 529 kts | 121° |
| 2026-04-24 16:04 | 44.51336 | -110.72065 | 34871 ft | 529 kts | 121° |
| 2026-04-24 16:04 | 44.47621 | -110.63142 | 34871 ft | 527 kts | 121° |
| 2026-04-24 16:05 | 44.42059 | -110.49837 | 34921 ft | 529 kts | 122° |
| 2026-04-24 16:06 | 44.36487 | -110.36571 | 34909 ft | 533 kts | 122° |
| 2026-04-24 16:07 | 44.30875 | -110.23271 | 34884 ft | 533 kts | 123° |
| 2026-04-24 16:07 | 44.25214 | -110.09915 | 34883 ft | 533 kts | 123° |
| 2026-04-24 16:08 | 44.19566 | -109.96654 | 34885 ft | 535 kts | 123° |
| 2026-04-24 16:09 | 44.13862 | -109.83323 | 34852 ft | 536 kts | 123° |
| 2026-04-24 16:09 | 44.10076 | -109.74507 | 34818 ft | 535 kts | 124° |
| 2026-04-24 16:11 | 44.00518 | -109.52375 | 34799 ft | 533 kts | 123° |
| 2026-04-24 16:11 | 43.96665 | -109.43503 | 34788 ft | 537 kts | 124° |
| 2026-04-24 16:12 | 43.90900 | -109.30277 | 34781 ft | 537 kts | 124° |
| 2026-04-24 16:13 | 43.85125 | -109.17083 | 34800 ft | 533 kts | 125° |
| 2026-04-24 16:14 | 43.77422 | -108.99584 | 34842 ft | 532 kts | 125° |
| 2026-04-24 16:14 | 43.71583 | -108.86391 | 34882 ft | 534 kts | 125° |
| 2026-04-24 16:15 | 43.65741 | -108.73251 | 34896 ft | 536 kts | 125° |
| 2026-04-24 16:16 | 43.59898 | -108.60163 | 34906 ft | 536 kts | 126° |
| 2026-04-24 16:17 | 43.50092 | -108.38336 | 34887 ft | 538 kts | 126° |
| 2026-04-24 16:18 | 43.41733 | -108.21375 | 34891 ft | 537 kts | 131° |
| 2026-04-24 16:19 | 43.35139 | -108.08996 | 34888 ft | 533 kts | 131° |
| 2026-04-24 16:20 | 43.28517 | -107.96629 | 34905 ft | 536 kts | 132° |
| 2026-04-24 16:20 | 43.21907 | -107.84338 | 34907 ft | 537 kts | 132° |
| 2026-04-24 16:21 | 43.15249 | -107.72008 | 34920 ft | 536 kts | 132° |
| 2026-04-24 16:22 | 43.10822 | -107.63841 | 34912 ft | 535 kts | 132° |
| 2026-04-24 16:22 | 43.04180 | -107.51630 | 34895 ft | 537 kts | 133° |
| 2026-04-24 16:23 | 42.99704 | -107.43427 | 34904 ft | 537 kts | 132° |
| 2026-04-24 16:24 | 42.93019 | -107.31218 | 34885 ft | 536 kts | 133° |
| 2026-04-24 16:24 | 42.88570 | -107.23122 | 34866 ft | 535 kts | 134° |
| 2026-04-24 16:25 | 42.84106 | -107.15019 | 34879 ft | 533 kts | 133° |
| 2026-04-24 16:25 | 42.79647 | -107.06950 | 34882 ft | 534 kts | 133° |
| 2026-04-24 16:26 | 42.73000 | -106.94958 | 34905 ft | 533 kts | 133° |
| 2026-04-24 16:27 | 42.66307 | -106.82933 | 34916 ft | 531 kts | 133° |
| 2026-04-24 16:27 | 42.61829 | -106.74918 | 34935 ft | 532 kts | 133° |
| 2026-04-24 16:28 | 42.57375 | -106.66963 | 34928 ft | 532 kts | 133° |
| 2026-04-24 16:28 | 42.50659 | -106.55009 | 34906 ft | 533 kts | 133° |
| 2026-04-24 16:29 | 42.46158 | -106.47026 | 34915 ft | 533 kts | 133° |
| 2026-04-24 16:30 | 42.37189 | -106.31180 | 34894 ft | 534 kts | 133° |
| 2026-04-24 16:30 | 42.32660 | -106.23206 | 34880 ft | 529 kts | 134° |
| 2026-04-24 16:31 | 42.28202 | -106.15382 | 34891 ft | 532 kts | 134° |
| 2026-04-24 16:31 | 42.23664 | -106.07440 | 34896 ft | 533 kts | 133° |
| 2026-04-24 16:32 | 42.19192 | -105.99627 | 34875 ft | 528 kts | 133° |
| 2026-04-24 16:32 | 42.14660 | -105.91739 | 34891 ft | 531 kts | 133° |
| 2026-04-24 16:33 | 42.10150 | -105.83903 | 34889 ft | 531 kts | 133° |
| 2026-04-24 16:33 | 42.05621 | -105.76058 | 34893 ft | 531 kts | 133° |
| 2026-04-24 16:34 | 42.01114 | -105.68269 | 34891 ft | 530 kts | 133° |
| 2026-04-24 16:34 | 41.96573 | -105.60444 | 34882 ft | 530 kts | 133° |
| 2026-04-24 16:35 | 41.92005 | -105.52593 | 34891 ft | 531 kts | 133° |
| 2026-04-24 16:35 | 41.87479 | -105.44832 | 34898 ft | 528 kts | 133° |
| 2026-04-24 16:36 | 41.82923 | -105.37041 | 34909 ft | 529 kts | 132° |
| 2026-04-24 16:36 | 41.78400 | -105.29323 | 34892 ft | 525 kts | 133° |
| 2026-04-24 16:37 | 41.73850 | -105.21584 | 34897 ft | 528 kts | 133° |
| 2026-04-24 16:37 | 41.69300 | -105.13860 | 34910 ft | 523 kts | 133° |
| 2026-04-24 16:38 | 41.64808 | -105.06257 | 34908 ft | 522 kts | 133° |
| 2026-04-24 16:38 | 41.60283 | -104.98619 | 34928 ft | 526 kts | 133° |
| 2026-04-24 16:39 | 41.55784 | -104.91039 | 34939 ft | 522 kts | 133° |
| 2026-04-24 16:39 | 41.51262 | -104.83442 | 34929 ft | 520 kts | 133° |
| 2026-04-24 16:40 | 41.46746 | -104.75874 | 34945 ft | 521 kts | 133° |
| 2026-04-24 16:40 | 41.42269 | -104.68391 | 34963 ft | 523 kts | 133° |
| 2026-04-24 16:41 | 41.37753 | -104.60858 | 34960 ft | 517 kts | 133° |
| 2026-04-24 16:41 | 41.33280 | -104.53419 | 34962 ft | 518 kts | 133° |
| 2026-04-24 16:42 | 41.28766 | -104.45929 | 34950 ft | 518 kts | 133° |
| 2026-04-24 16:42 | 41.24260 | -104.38467 | 34958 ft | 514 kts | 133° |
| 2026-04-24 16:43 | 41.19790 | -104.31087 | 34943 ft | 515 kts | 133° |
| 2026-04-24 16:43 | 41.15293 | -104.23680 | 34967 ft | 514 kts | 133° |
| 2026-04-24 16:44 | 41.10827 | -104.16341 | 34959 ft | 515 kts | 133° |
| 2026-04-24 16:44 | 41.06935 | -104.09959 | 34977 ft | 510 kts | 133° |
| 2026-04-24 16:45 | 41.02492 | -104.02691 | 34967 ft | 512 kts | 133° |
| 2026-04-24 16:45 | 40.98035 | -103.95417 | 34968 ft | 511 kts | 133° |
| 2026-04-24 16:46 | 40.93538 | -103.88094 | 34954 ft | 510 kts | 133° |
| 2026-04-24 16:46 | 40.89068 | -103.80835 | 34957 ft | 512 kts | 133° |
| 2026-04-24 16:47 | 40.84547 | -103.73508 | 34960 ft | 513 kts | 133° |
| 2026-04-24 16:47 | 40.80039 | -103.66221 | 34953 ft | 514 kts | 133° |
| 2026-04-24 16:48 | 40.75540 | -103.58965 | 34963 ft | 513 kts | 133° |
| 2026-04-24 16:48 | 40.71016 | -103.51685 | 34956 ft | 512 kts | 133° |
| 2026-04-24 16:49 | 40.66469 | -103.44388 | 34956 ft | 516 kts | 133° |
| 2026-04-24 16:49 | 40.61934 | -103.37125 | 34944 ft | 514 kts | 133° |
| 2026-04-24 16:50 | 40.57387 | -103.29860 | 34914 ft | 516 kts | 134° |
| 2026-04-24 16:50 | 40.52784 | -103.22664 | 34913 ft | 513 kts | 137° |
| 2026-04-24 16:51 | 40.47910 | -103.15884 | 34927 ft | 513 kts | 138° |
| 2026-04-24 16:51 | 40.43001 | -103.09123 | 34935 ft | 512 kts | 138° |
| 2026-04-24 16:52 | 40.38083 | -103.02369 | 34925 ft | 512 kts | 138° |
| 2026-04-24 16:52 | 40.33145 | -102.95606 | 34946 ft | 513 kts | 138° |
| 2026-04-24 16:53 | 40.28222 | -102.88877 | 34952 ft | 512 kts | 138° |
| 2026-04-24 16:53 | 40.23322 | -102.82195 | 34931 ft | 510 kts | 138° |
| 2026-04-24 16:54 | 40.18377 | -102.75470 | 34948 ft | 512 kts | 138° |
| 2026-04-24 16:54 | 40.13443 | -102.68773 | 34933 ft | 512 kts | 138° |
| 2026-04-24 16:55 | 40.08527 | -102.62116 | 34932 ft | 511 kts | 138° |
| 2026-04-24 16:55 | 40.03569 | -102.55417 | 34940 ft | 511 kts | 138° |
| 2026-04-24 16:56 | 39.98647 | -102.48782 | 34944 ft | 511 kts | 138° |
| 2026-04-24 16:56 | 39.93722 | -102.42157 | 34949 ft | 511 kts | 138° |
| 2026-04-24 16:57 | 39.88785 | -102.35529 | 34946 ft | 510 kts | 138° |
| 2026-04-24 16:57 | 39.83821 | -102.28881 | 34936 ft | 510 kts | 139° |
| 2026-04-24 16:58 | 39.78869 | -102.22265 | 34935 ft | 511 kts | 139° |
| 2026-04-24 16:58 | 39.73903 | -102.15642 | 34926 ft | 510 kts | 139° |
| 2026-04-24 16:59 | 39.68938 | -102.09038 | 34932 ft | 512 kts | 139° |
| 2026-04-24 17:00 | 39.61485 | -101.99149 | 34945 ft | 512 kts | 139° |
| 2026-04-24 17:00 | 39.53995 | -101.89244 | 34946 ft | 514 kts | 140° |
| 2026-04-24 17:01 | 39.46513 | -101.79379 | 34933 ft | 513 kts | 140° |
| 2026-04-24 17:02 | 39.38981 | -101.69518 | 34933 ft | 513 kts | 142° |
| 2026-04-24 17:02 | 39.33635 | -101.63397 | 34923 ft | 511 kts | 144° |
| 2026-04-24 17:03 | 39.25624 | -101.54388 | 34942 ft | 512 kts | 144° |
| 2026-04-24 17:04 | 39.20246 | -101.48351 | 34945 ft | 514 kts | 144° |
| 2026-04-24 17:04 | 39.12174 | -101.39312 | 34939 ft | 515 kts | 144° |
| 2026-04-24 17:05 | 39.06751 | -101.33255 | 34919 ft | 512 kts | 145° |
| 2026-04-24 17:06 | 38.98621 | -101.24198 | 34927 ft | 515 kts | 146° |
| 2026-04-24 17:06 | 38.90507 | -101.15185 | 34932 ft | 514 kts | 146° |
| 2026-04-24 17:07 | 38.85085 | -101.09180 | 34937 ft | 515 kts | 146° |
| 2026-04-24 17:08 | 38.74287 | -100.97254 | 34941 ft | 513 kts | 146° |
| 2026-04-24 17:08 | 38.68898 | -100.91323 | 34946 ft | 514 kts | 146° |
| 2026-04-24 17:09 | 38.58097 | -100.79469 | 34941 ft | 511 kts | 146° |
| 2026-04-24 17:10 | 38.47313 | -100.67683 | 34945 ft | 511 kts | 146° |
| 2026-04-24 17:12 | 38.25791 | -100.44304 | 34936 ft | 510 kts | 146° |